Gladstone, North Dakota
Current Conditions -  °F | °C
As of 6:56 PM on Monday 20 Oct 2014 (Local Time) from KDIK Reporting Station
Clear Clear  
Wind Chill: 60°   Ceiling: Unl
Heat Index: 60°   Visibility: 10mi
Dew Point: 41°   Wind: 12mph
Humidity: 49%   Direction: 150°SSE
Pressure: 29.88"   Gusts: NA
Location:  46.86°N, 102.57°W
Report Text: KDIK 210056Z AUTO 15010KT 10SM CLR 16/05 A2988 RMK AO2 SLP122 T01560050
Loading
Personal Weather Stations






























Interactive Weather Map
Tropical Storm Tracking
New forecast layout! Learn more

10-Day Weather Forecast

Advertisements
Track Severe Weather on mobile